Time;durP1;ratioP1;P1;durP2;ratioP2;P2;SDS_P1;SDS_P2;PMS_P1;PMS_P2;Temp;Humidity;BMP_temperature;BMP_pressure;BME280_temperature;BME280_humidity;BME280_pressure;Samples;Min_cycle;Max_cycle;Signal;HPM_P1;HPM_P2
2023/04/16 00:02:14;;;;;;;12.82;2.67;;;;;;;7.96;90.11;102328.88;4987248;28;20039;-76
2023/04/16 00:04:39;;;;;;;10.90;2.38;;;;;;;7.96;90.21;102328.88;4989266;28;20042;-76
2023/04/16 00:07:06;;;;;;;11.20;3.13;;;;;;;7.95;90.59;102335.84;4990367;28;20064;-76
2023/04/16 00:09:32;;;;;;;6.50;2.03;;;;;;;7.93;90.83;102340.19;4996354;28;20046;-76
2023/04/16 00:11:57;;;;;;;9.98;2.50;;;;;;;7.93;90.89;102337.59;4977077;28;20093;-76
2023/04/16 00:14:22;;;;;;;7.45;2.10;;;;;;;7.95;90.71;102334.94;4993128;28;20046;-76
2023/04/16 00:16:48;;;;;;;10.32;2.55;;;;;;;7.98;90.23;102333.19;4998169;28;20242;-76
2023/04/16 00:19:13;;;;;;;9.35;2.15;;;;;;;7.98;90.30;102334.94;4998648;28;20234;-76
2023/04/16 00:21:39;;;;;;;18.13;2.50;;;;;;;7.95;90.50;102354.09;4997988;28;20642;-76
2023/04/16 00:24:04;;;;;;;10.35;1.95;;;;;;;7.93;90.58;102334.97;4995134;28;20057;-76
2023/04/16 00:26:30;;;;;;;7.75;2.20;;;;;;;7.94;90.33;102338.44;4980949;28;20061;-76
2023/04/16 00:28:55;;;;;;;7.97;1.73;;;;;;;7.94;90.32;102333.22;4998001;28;20238;-76
2023/04/16 00:31:29;;;;;;;3.63;1.52;;;;;;;7.92;90.12;102335.84;4997055;28;20063;-76
2023/04/16 00:33:54;;;;;;;8.55;1.88;;;;;;;7.91;90.19;102333.25;4997533;28;20669;-76
2023/04/16 00:36:21;;;;;;;5.97;1.70;;;;;;;7.85;90.35;102329.78;4998532;28;20065;-76
2023/04/16 00:38:47;;;;;;;7.53;1.90;;;;;;;7.83;90.52;102326.31;4992646;28;20383;-76
2023/04/16 00:41:12;;;;;;;10.98;1.80;;;;;;;7.81;90.59;102325.47;4998474;28;20042;-76
2023/04/16 00:43:37;;;;;;;10.90;1.92;;;;;;;7.82;90.72;102327.22;4997018;28;20045;-76
2023/04/16 00:46:05;;;;;;;13.73;2.00;;;;;;;7.81;90.96;102320.25;4998382;28;20093;-76
2023/04/16 00:48:32;;;;;;;7.47;2.05;;;;;;;7.81;90.70;102317.63;4992748;28;20042;-76
2023/04/16 00:50:59;;;;;;;11.07;2.15;;;;;;;7.82;90.69;102323.72;4998317;28;20408;-76
2023/04/16 00:53:24;;;;;;;7.38;1.92;;;;;;;7.82;90.50;102316.78;4997801;28;20207;-76
2023/04/16 00:55:50;;;;;;;5.43;1.60;;;;;;;7.82;90.60;102326.31;4997590;28;20038;-76
2023/04/16 00:58:16;;;;;;;7.43;2.00;;;;;;;7.82;90.59;102327.22;4992138;28;20341;-76
2023/04/16 01:04:05;;;;;;;7.55;1.60;;;;;;;7.83;90.65;102334.16;4484098;28;20038;-77
2023/04/16 01:06:31;;;;;;;10.35;1.83;;;;;;;7.84;90.98;102332.41;4984709;28;20333;-78
2023/04/16 01:08:56;;;;;;;10.50;1.92;;;;;;;7.85;90.92;102328.94;4998106;28;20128;-77
2023/04/16 01:11:22;;;;;;;10.88;1.73;;;;;;;7.84;90.66;102330.69;4998629;28;20042;-77
2023/04/16 01:13:47;;;;;;;7.18;1.80;;;;;;;7.86;90.83;102328.91;4997962;28;20049;-77
2023/04/16 01:16:12;;;;;;;13.45;2.50;;;;;;;7.83;90.97;102323.72;4998114;28;20281;-77
2023/04/16 01:18:39;;;;;;;8.88;2.20;;;;;;;7.83;90.99;102328.06;4954199;28;20066;-77
2023/04/16 01:21:05;;;;;;;6.07;1.55;;;;;;;7.83;91.27;102334.16;4980995;28;20083;-77
2023/04/16 01:23:30;;;;;;;10.02;2.20;;;;;;;7.84;91.26;102335.91;4997238;28;20357;-77
2023/04/16 01:25:56;;;;;;;7.40;2.10;;;;;;;7.82;91.21;102335.03;4996681;28;20049;-77
2023/04/16 01:28:22;;;;;;;6.57;1.80;;;;;;;7.82;91.31;102335.03;4967090;28;20034;-77
2023/04/16 01:30:47;;;;;;;8.35;1.85;;;;;;;7.83;91.48;102336.75;4994868;28;20037;-78
2023/04/16 01:33:14;;;;;;;10.30;1.92;;;;;;;7.83;91.47;102334.16;4998045;28;20341;-78
2023/04/16 01:35:40;;;;;;;12.45;2.08;;;;;;;7.85;91.64;102334.13;4997864;28;20257;-78
2023/04/16 01:38:07;;;;;;;7.18;2.00;;;;;;;7.87;91.52;102329.78;4996923;28;20031;-77
2023/04/16 01:40:33;;;;;;;6.65;1.92;;;;;;;7.90;91.41;102341.97;4998086;28;20049;-78
2023/04/16 01:42:59;;;;;;;8.80;1.90;;;;;;;7.91;91.40;102335.84;4987915;28;20083;-78
2023/04/16 01:45:24;;;;;;;13.43;2.35;;;;;;;7.92;91.32;102341.06;4998312;28;20066;-78
2023/04/16 01:47:50;;;;;;;8.27;2.33;;;;;;;7.94;91.24;102336.69;4986558;28;20042;-77
2023/04/16 01:50:17;;;;;;;12.55;2.75;;;;;;;7.94;91.05;102338.44;4996730;28;20050;-77
2023/04/16 01:52:42;;;;;;;14.23;2.33;;;;;;;7.96;90.87;102341.91;4984844;28;20117;-78
2023/04/16 01:55:09;;;;;;;9.25;2.20;;;;;;;7.93;90.89;102336.69;4984933;28;20068;-78
2023/04/16 01:57:34;;;;;;;13.52;3.50;;;;;;;7.93;90.98;102339.31;4987646;28;20258;-78
2023/04/16 02:00:00;;;;;;;11.07;2.55;;;;;;;7.93;91.14;102342.81;4983555;28;20164;-78
2023/04/16 02:02:27;;;;;;;12.57;2.22;;;;;;;7.93;90.98;102342.81;4990132;28;20247;-78
2023/04/16 02:04:53;;;;;;;6.65;2.67;;;;;;;7.93;90.80;102341.91;4997817;28;20233;-78
2023/04/16 02:07:19;;;;;;;9.95;2.47;;;;;;;7.91;90.82;102347.13;4990968;28;20066;-77
2023/04/16 02:09:44;;;;;;;5.88;2.25;;;;;;;7.92;91.07;102348.03;4997805;28;20218;-78
2023/04/16 02:12:13;;;;;;;10.45;2.58;;;;;;;7.93;90.86;102349.75;4994011;28;20038;-77
2023/04/16 02:14:38;;;;;;;9.07;2.30;;;;;;;7.91;90.99;102357.56;4982597;28;20226;-78
2023/04/16 02:17:03;;;;;;;7.90;2.92;;;;;;;7.82;91.07;102345.47;4997209;28;20038;-78
2023/04/16 02:19:29;;;;;;;8.98;2.70;;;;;;;7.83;91.25;102355.00;4983326;28;20038;-78
2023/04/16 02:21:54;;;;;;;10.02;3.47;;;;;;;7.84;91.45;102348.94;4981516;28;20053;-77
2023/04/16 02:24:20;;;;;;;8.90;2.40;;;;;;;7.84;91.09;102348.94;5001363;28;20045;-78
2023/04/16 02:26:46;;;;;;;7.57;2.08;;;;;;;7.85;91.22;102353.25;4999311;28;20046;-78
2023/04/16 02:29:12;;;;;;;8.88;2.25;;;;;;;7.88;91.14;102353.25;5001672;28;20034;-78
2023/04/16 02:31:38;;;;;;;6.40;2.55;;;;;;;7.91;91.13;102359.31;5000233;28;20296;-78
2023/04/16 02:34:04;;;;;;;6.03;2.20;;;;;;;7.90;91.17;102353.25;4982152;28;20042;-77
2023/04/16 02:36:30;;;;;;;10.18;2.97;;;;;;;7.90;91.05;102355.84;4996019;28;20038;-77
2023/04/16 02:38:56;;;;;;;6.40;2.30;;;;;;;7.92;90.91;102358.47;4999035;28;20234;-76
2023/04/16 02:41:22;;;;;;;9.20;3.22;;;;;;;7.90;91.10;102355.84;4998818;28;20046;-77
2023/04/16 02:43:47;;;;;;;7.78;2.50;;;;;;;7.87;91.08;102356.72;5000216;28;20253;-76
2023/04/16 02:46:13;;;;;;;10.45;3.00;;;;;;;7.79;92.03;102361.13;5000007;28;20116;-77
2023/04/16 02:48:38;;;;;;;9.52;3.08;;;;;;;7.79;93.03;102365.50;4984778;28;20097;-76
2023/04/16 02:51:04;;;;;;;13.35;3.05;;;;;;;7.73;93.33;102363.78;4992081;28;20061;-76
2023/04/16 02:53:29;;;;;;;7.82;2.47;;;;;;;7.73;93.22;102369.00;5000174;28;20034;-76
2023/04/16 02:55:55;;;;;;;14.98;3.47;;;;;;;7.68;93.40;102361.16;5000139;28;20241;-77
2023/04/16 02:58:23;;;;;;;13.88;3.10;;;;;;;7.70;93.73;102366.38;4987364;28;20042;-77
2023/04/16 03:00:49;;;;;;;9.55;3.13;;;;;;;7.68;93.89;102369.00;4990407;28;20066;-77
2023/04/16 03:03:15;;;;;;;12.80;2.97;;;;;;;7.69;93.78;102362.03;5000300;28;20388;-76
2023/04/16 03:05:40;;;;;;;10.38;2.97;;;;;;;7.69;94.23;102349.88;4978240;28;20038;-76
2023/04/16 03:08:06;;;;;;;12.23;3.25;;;;;;;7.72;94.00;102356.81;4985682;28;20054;-77
2023/04/16 03:10:31;;;;;;;14.15;3.33;;;;;;;7.73;94.05;102363.78;4986017;28;20081;-77
2023/04/16 03:12:57;;;;;;;12.50;2.97;;;;;;;7.74;94.38;102370.72;4990927;28;20027;-77
2023/04/16 03:15:23;;;;;;;13.40;3.10;;;;;;;7.69;94.63;102372.47;4984101;28;20272;-76
2023/04/16 03:17:48;;;;;;;12.93;3.22;;;;;;;7.67;95.01;102372.47;4991567;28;20042;-77
2023/04/16 03:20:15;;;;;;;8.77;3.03;;;;;;;7.67;95.41;102374.22;4984048;28;20383;-77
2023/04/16 03:22:41;;;;;;;9.93;3.05;;;;;;;7.69;95.27;102369.84;4992721;28;20082;-76
2023/04/16 03:25:07;;;;;;;9.35;3.63;;;;;;;7.68;95.20;102381.19;4981248;28;20277;-77
2023/04/16 03:27:33;;;;;;;8.95;3.38;;;;;;;7.68;95.31;102376.81;4994678;28;20214;-77
2023/04/16 03:29:59;;;;;;;13.43;3.47;;;;;;;7.71;95.35;102362.88;4981500;28;20034;-77
2023/04/16 03:32:24;;;;;;;9.25;2.90;;;;;;;7.73;95.29;102369.00;4998371;28;20030;-76
2023/04/16 03:34:49;;;;;;;14.63;3.72;;;;;;;7.72;95.68;102379.44;4999464;28;20037;-77
2023/04/16 03:37:15;;;;;;;12.63;3.03;;;;;;;7.72;95.84;102379.44;4998424;28;20088;-77
2023/04/16 03:39:40;;;;;;;14.02;3.45;;;;;;;7.70;96.02;102379.44;4999423;28;20038;-77
2023/04/16 03:42:06;;;;;;;9.82;4.00;;;;;;;7.67;96.57;102376.81;4998933;28;20042;-77
2023/04/16 03:44:31;;;;;;;9.25;2.60;;;;;;;7.66;97.10;102373.34;4978577;28;20046;-77
2023/04/16 03:46:56;;;;;;;8.07;2.97;;;;;;;7.65;97.51;102370.75;4995503;28;20116;-77
2023/04/16 03:49:22;;;;;;;13.05;3.95;;;;;;;7.62;97.65;102365.53;4997888;28;20337;-77
2023/04/16 03:51:47;;;;;;;12.40;2.85;;;;;;;7.63;97.98;102375.97;4998972;28;20034;-77
2023/04/16 03:54:13;;;;;;;9.00;3.30;;;;;;;7.62;98.24;102368.16;4982349;28;20087;-77
2023/04/16 03:56:41;;;;;;;18.40;3.50;;;;;;;7.64;98.17;102372.50;4973876;28;20026;-77
2023/04/16 03:59:08;;;;;;;6.22;2.72;;;;;;;7.67;98.56;102363.78;4996835;28;20034;-77
2023/04/16 04:01:33;;;;;;;21.65;3.08;;;;;;;7.67;98.55;102374.22;4997395;28;20026;-77
2023/04/16 04:03:59;;;;;;;10.32;2.83;;;;;;;7.68;98.55;102369.00;4987629;28;20053;-77
2023/04/16 04:06:24;;;;;;;13.13;3.00;;;;;;;7.67;98.34;102372.47;4992715;28;20077;-77
2023/04/16 04:08:49;;;;;;;9.90;2.65;;;;;;;7.65;98.37;102376.81;4998758;28;20042;-76
2023/04/16 04:11:15;;;;;;;18.83;3.50;;;;;;;7.65;98.69;102378.56;4999136;28;20139;-77
2023/04/16 04:13:40;;;;;;;12.10;3.28;;;;;;;7.65;98.79;102368.13;4973535;28;20346;-77
2023/04/16 04:16:06;;;;;;;8.93;3.38;;;;;;;7.65;98.90;102366.38;4979701;28;20062;-77
2023/04/16 04:18:31;;;;;;;16.83;3.28;;;;;;;7.66;98.66;102368.13;4988055;28;20041;-77
2023/04/16 04:20:57;;;;;;;8.43;2.53;;;;;;;7.68;98.94;102370.75;4998912;28;20076;-77
2023/04/16 04:23:22;;;;;;;11.73;3.10;;;;;;;7.67;98.94;102375.06;4997594;28;20097;-77
2023/04/16 04:25:48;;;;;;;15.13;3.63;;;;;;;7.67;98.69;102369.00;4998250;28;20038;-77
2023/04/16 04:28:14;;;;;;;6.82;2.38;;;;;;;7.68;98.99;102378.56;4977606;28;20113;-77
2023/04/16 04:30:39;;;;;;;8.52;2.97;;;;;;;7.67;99.12;102377.69;4982963;28;20053;-77
2023/04/16 04:33:05;;;;;;;7.20;2.72;;;;;;;7.67;98.93;102377.69;4998291;28;20337;-77
2023/04/16 04:35:31;;;;;;;6.22;2.53;;;;;;;7.68;99.23;102384.66;4998261;28;20057;-77
2023/04/16 04:37:56;;;;;;;9.25;2.40;;;;;;;7.67;99.23;102382.03;4997702;28;20400;-77
2023/04/16 04:40:22;;;;;;;6.10;2.47;;;;;;;7.66;99.29;102383.78;4997300;28;20326;-77
2023/04/16 04:42:47;;;;;;;8.48;2.42;;;;;;;7.65;99.43;102378.56;4994219;28;20042;-77
2023/04/16 04:45:12;;;;;;;10.27;2.42;;;;;;;7.65;99.58;102382.03;4998379;28;20061;-77
2023/04/16 04:47:38;;;;;;;7.18;2.58;;;;;;;7.66;99.47;102391.59;4996078;28;20037;-77
2023/04/16 04:50:03;;;;;;;10.95;2.85;;;;;;;7.67;99.54;102389.84;4998455;28;20240;-77
2023/04/16 04:52:29;;;;;;;6.72;2.63;;;;;;;7.65;100.00;102389.84;4998111;28;20050;-77
2023/04/16 04:54:55;;;;;;;9.80;2.22;;;;;;;7.67;100.00;102389.84;4992970;28;20034;-77
2023/04/16 04:57:20;;;;;;;12.00;3.20;;;;;;;7.66;100.00;102391.59;4997838;28;20038;-77
2023/04/16 04:59:45;;;;;;;6.05;2.05;;;;;;;7.67;100.00;102395.06;4994072;28;20054;-77
2023/04/16 05:02:11;;;;;;;9.05;2.58;;;;;;;7.69;100.00;102403.75;4997289;28;20080;-77
2023/04/16 05:04:36;;;;;;;4.03;1.92;;;;;;;7.71;100.00;102401.16;4993798;28;20041;-77
2023/04/16 05:07:02;;;;;;;9.68;2.20;;;;;;;7.72;99.97;102403.75;4998410;28;20249;-77
2023/04/16 05:09:27;;;;;;;7.07;1.90;;;;;;;7.75;99.90;102406.34;4997624;28;20153;-77
2023/04/16 05:11:52;;;;;;;8.07;2.10;;;;;;;7.77;100.00;102402.00;4996415;28;20038;-77
2023/04/16 05:14:18;;;;;;;6.47;2.08;;;;;;;7.78;99.66;102411.53;4992283;28;20058;-77
2023/04/16 05:16:43;;;;;;;5.57;1.92;;;;;;;7.77;99.45;102407.22;4997807;28;20049;-77
2023/04/16 05:19:09;;;;;;;8.40;2.13;;;;;;;7.80;99.54;102414.16;4997522;28;20050;-77
2023/04/16 05:21:34;;;;;;;5.45;1.98;;;;;;;7.79;99.53;102410.69;4996231;28;20056;-77
2023/04/16 05:24:00;;;;;;;7.97;2.30;;;;;;;7.81;99.51;102415.91;4982306;28;20042;-77
2023/04/16 05:26:25;;;;;;;9.60;2.53;;;;;;;7.82;99.08;102417.63;4998021;28;20037;-77
2023/04/16 05:28:50;;;;;;;6.53;2.35;;;;;;;7.81;99.36;102419.38;4996879;28;20046;-77
2023/04/16 05:31:16;;;;;;;6.43;2.67;;;;;;;7.81;99.46;102419.38;4996503;28;20223;-77
2023/04/16 05:33:41;;;;;;;9.23;2.88;;;;;;;7.78;99.56;102421.13;4996818;28;20368;-77
2023/04/16 05:36:06;;;;;;;6.07;2.10;;;;;;;7.78;99.45;102421.97;4996582;28;20349;-77
2023/04/16 05:38:32;;;;;;;11.57;2.80;;;;;;;7.78;99.85;102415.91;4991989;28;20046;-77
2023/04/16 05:40:57;;;;;;;8.38;2.45;;;;;;;7.78;99.87;102419.38;4995154;28;20045;-77
2023/04/16 05:43:23;;;;;;;8.82;3.08;;;;;;;7.79;99.85;102422.88;4997055;28;20038;-77
2023/04/16 05:45:48;;;;;;;18.90;3.75;;;;;;;7.75;99.94;102422.00;4998785;28;20419;-77
2023/04/16 05:48:13;;;;;;;7.65;2.97;;;;;;;7.79;100.00;102420.25;4997362;28;20043;-77
2023/04/16 05:50:39;;;;;;;13.48;2.70;;;;;;;7.78;99.97;102426.34;4995218;28;20362;-77
2023/04/16 05:53:06;;;;;;;10.80;2.63;;;;;;;7.79;99.76;102428.09;4999236;28;20038;-77
2023/04/16 05:55:32;;;;;;;6.35;3.30;;;;;;;7.78;99.87;102427.19;4993744;28;20105;-77
2023/04/16 05:57:57;;;;;;;12.18;3.20;;;;;;;7.80;99.96;102429.78;5001620;28;20055;-77
2023/04/16 06:00:23;;;;;;;13.77;3.72;;;;;;;7.80;99.96;102422.84;4991837;28;20048;-77
2023/04/16 06:02:49;;;;;;;10.43;3.38;;;;;;;7.79;100.00;102428.09;4999885;28;20034;-77
2023/04/16 06:05:14;;;;;;;6.35;2.70;;;;;;;7.83;100.00;102432.41;4999288;28;20030;-77
2023/04/16 06:07:40;;;;;;;8.40;2.95;;;;;;;7.84;100.00;102434.13;5001345;28;20353;-77
2023/04/16 06:10:06;;;;;;;9.77;3.83;;;;;;;7.85;99.92;102439.34;4992454;28;20037;-77
2023/04/16 06:12:31;;;;;;;5.95;2.95;;;;;;;7.84;99.63;102432.41;5001330;28;20038;-77
2023/04/16 06:14:57;;;;;;;7.97;3.20;;;;;;;7.84;99.87;102440.22;4974589;28;20230;-77
2023/04/16 06:17:22;;;;;;;10.32;3.08;;;;;;;7.84;99.87;102437.63;4981458;28;20236;-77
2023/04/16 06:19:47;;;;;;;12.43;3.65;;;;;;;7.83;99.97;102441.09;4996437;28;20337;-77
2023/04/16 06:22:13;;;;;;;11.93;3.45;;;;;;;7.83;100.00;102438.47;5001067;28;20329;-77
2023/04/16 06:24:39;;;;;;;7.72;3.35;;;;;;;7.83;100.00;102435.00;4988798;28;20039;-77
2023/04/16 06:27:04;;;;;;;6.72;3.13;;;;;;;7.82;100.00;102441.09;4988728;28;20062;-77
2023/04/16 06:29:29;;;;;;;13.00;3.63;;;;;;;7.84;100.00;102442.84;4985232;28;20038;-77
2023/04/16 06:31:55;;;;;;;4.97;4.00;;;;;;;7.84;100.00;102441.94;5000579;28;20420;-77
2023/04/16 06:34:20;;;;;;;10.02;3.33;;;;;;;7.85;100.00;102444.56;4991814;28;20065;-77
2023/04/16 06:36:45;;;;;;;5.57;2.88;;;;;;;7.87;100.00;102455.00;4998159;28;20238;-77
2023/04/16 06:39:11;;;;;;;9.00;3.22;;;;;;;7.86;100.00;102456.75;4993146;28;20050;-77
2023/04/16 06:41:36;;;;;;;8.55;3.38;;;;;;;7.84;100.00;102457.59;4997243;28;20041;-77
2023/04/16 06:44:02;;;;;;;9.82;3.22;;;;;;;7.84;100.00;102468.03;5000669;28;20034;-77
2023/04/16 06:46:27;;;;;;;8.05;3.42;;;;;;;7.85;100.00;102464.56;4994275;28;20282;-77
2023/04/16 06:48:52;;;;;;;8.32;3.20;;;;;;;7.85;100.00;102456.75;4987134;28;20237;-77
2023/04/16 06:51:18;;;;;;;5.20;3.50;;;;;;;7.85;100.00;102470.63;4993938;28;20364;-77
2023/04/16 06:53:43;;;;;;;7.97;3.78;;;;;;;7.83;100.00;102464.56;4999624;28;20291;-77
2023/04/16 06:56:09;;;;;;;5.88;3.10;;;;;;;7.84;100.00;102463.72;4999934;28;20050;-77
2023/04/16 06:58:34;;;;;;;7.75;3.45;;;;;;;7.86;100.00;102464.56;4998692;28;20219;-77
2023/04/16 07:01:01;;;;;;;9.32;3.28;;;;;;;7.89;100.00;102466.28;4999903;28;20050;-77
2023/04/16 07:03:26;;;;;;;9.27;3.67;;;;;;;7.86;100.00;102467.16;4999745;28;20341;-77
2023/04/16 07:05:52;;;;;;;10.35;4.30;;;;;;;7.83;100.00;102461.09;4988667;28;20050;-77
2023/04/16 07:08:17;;;;;;;9.75;3.72;;;;;;;7.82;100.00;102473.28;4989512;28;20052;-77
2023/04/16 07:10:43;;;;;;;8.50;3.80;;;;;;;7.81;100.00;102468.91;4986464;28;20272;-77
2023/04/16 07:13:08;;;;;;;6.65;3.40;;;;;;;7.83;100.00;102472.38;4999784;28;20257;-77
2023/04/16 07:15:34;;;;;;;7.93;4.13;;;;;;;7.84;100.00;102478.47;4998591;28;20050;-77
2023/04/16 07:17:59;;;;;;;11.60;3.70;;;;;;;7.85;100.00;102475.00;5000107;28;20042;-77
2023/04/16 07:20:25;;;;;;;5.80;3.58;;;;;;;7.84;100.00;102479.34;4988229;28;20046;-77
2023/04/16 07:22:50;;;;;;;8.73;3.92;;;;;;;7.84;100.00;102476.75;4999761;28;20061;-77
2023/04/16 07:25:15;;;;;;;14.10;3.80;;;;;;;7.85;100.00;102473.25;4999601;28;20046;-77
2023/04/16 07:27:41;;;;;;;5.97;3.60;;;;;;;7.87;100.00;102474.09;4999075;28;20321;-77
2023/04/16 07:30:07;;;;;;;5.38;3.60;;;;;;;7.89;100.00;102468.88;4987765;28;20038;-77
2023/04/16 07:32:32;;;;;;;6.95;3.97;;;;;;;7.91;100.00;102479.31;4999308;28;20122;-77
2023/04/16 07:34:57;;;;;;;4.95;3.42;;;;;;;7.92;100.00;102476.72;4988927;28;20085;-77
2023/04/16 07:37:23;;;;;;;7.10;3.75;;;;;;;7.93;100.00;102478.47;4995213;28;20042;-77
2023/04/16 07:39:48;;;;;;;5.97;3.85;;;;;;;7.94;100.00;102481.94;4989631;28;20090;-76
2023/04/16 07:42:14;;;;;;;10.50;4.00;;;;;;;7.95;100.00;102484.53;4997851;28;20046;-77
2023/04/16 07:44:39;;;;;;;4.30;2.95;;;;;;;7.97;100.00;102485.41;4997728;28;20046;-77
2023/04/16 07:47:05;;;;;;;5.43;3.33;;;;;;;8.00;100.00;102484.50;4994091;28;20105;-77
2023/04/16 07:49:30;;;;;;;11.70;3.75;;;;;;;8.00;100.00;102494.94;4996821;28;20148;-77
2023/04/16 07:51:56;;;;;;;6.15;3.70;;;;;;;7.99;100.00;102498.44;4993402;28;20042;-77
2023/04/16 07:54:21;;;;;;;8.75;3.42;;;;;;;7.97;100.00;102489.75;4990439;28;20043;-78
2023/04/16 07:56:46;;;;;;;8.27;3.88;;;;;;;7.98;100.00;102499.31;4993955;28;20042;-77
2023/04/16 07:59:12;;;;;;;9.25;3.50;;;;;;;8.00;100.00;102502.78;4996812;28;20042;-77
2023/04/16 08:01:37;;;;;;;9.18;3.70;;;;;;;8.00;100.00;102498.41;4996130;28;20218;-77
2023/04/16 08:04:03;;;;;;;8.73;3.53;;;;;;;8.03;100.00;102500.16;4996737;28;20037;-77
2023/04/16 08:06:28;;;;;;;8.85;3.65;;;;;;;8.00;100.00;102503.63;4996360;28;20040;-77
2023/04/16 08:08:54;;;;;;;5.72;3.15;;;;;;;8.01;100.00;102499.31;4996267;28;20072;-77
2023/04/16 08:11:20;;;;;;;8.73;3.83;;;;;;;7.99;100.00;102499.31;4995921;28;20038;-77
2023/04/16 08:13:45;;;;;;;9.05;5.25;;;;;;;7.97;100.00;102508.88;4989813;28;20073;-77
2023/04/16 08:16:11;;;;;;;5.72;3.85;;;;;;;7.99;100.00;102517.56;4996242;28;20042;-77
2023/04/16 08:18:36;;;;;;;8.75;3.75;;;;;;;8.01;100.00;102518.44;4989417;28;20055;-77
2023/04/16 08:21:01;;;;;;;6.68;4.03;;;;;;;8.04;100.00;102517.53;4995290;28;20038;-77
2023/04/16 08:23:27;;;;;;;9.75;4.30;;;;;;;8.05;100.00;102524.50;4995769;28;20082;-77
2023/04/16 08:25:53;;;;;;;5.63;3.85;;;;;;;8.04;100.00;102517.53;4991098;28;20038;-77
2023/04/16 08:28:18;;;;;;;5.90;4.10;;;;;;;8.04;100.00;102526.25;4992416;28;20056;-77
2023/04/16 08:30:44;;;;;;;8.93;4.80;;;;;;;8.04;100.00;102523.66;4994967;28;20057;-77
2023/04/16 08:33:10;;;;;;;9.70;4.30;;;;;;;8.07;100.00;102526.22;4992755;28;20046;-77
2023/04/16 08:35:36;;;;;;;11.00;4.68;;;;;;;8.08;100.00;102529.72;4990126;28;20053;-77
2023/04/16 08:38:03;;;;;;;9.15;3.95;;;;;;;8.07;100.00;102526.22;4990333;28;20042;-77
2023/04/16 08:40:30;;;;;;;7.00;3.30;;;;;;;8.09;100.00;102531.44;4993054;28;20042;-77
2023/04/16 08:42:58;;;;;;;15.00;4.32;;;;;;;8.12;100.00;102526.22;4992641;28;20034;-77
2023/04/16 08:45:25;;;;;;;9.30;3.58;;;;;;;8.12;100.00;102521.00;4991242;28;20046;-77
2023/04/16 08:47:51;;;;;;;6.32;3.90;;;;;;;8.14;100.00;102528.84;4993464;28;20054;-77
2023/04/16 08:50:22;;;;;;;6.85;4.03;;;;;;;8.16;100.00;102543.59;4995850;28;20050;-77
2023/04/16 08:52:59;;;;;;;6.78;4.10;;;;;;;8.17;100.00;102534.06;4995596;28;20353;-77
2023/04/16 08:55:45;;;;;;;4.75;3.28;;;;;;;8.20;100.00;102545.31;4991783;28;20073;-77
2023/04/16 08:58:18;;;;;;;10.07;4.15;;;;;;;8.22;100.00;102534.88;4990358;28;20034;-78
2023/04/16 09:00:45;;;;;;;5.53;3.80;;;;;;;8.22;100.00;102537.47;4989398;28;20046;-77
2023/04/16 09:03:11;;;;;;;6.78;4.03;;;;;;;8.24;100.00;102541.84;4991580;28;20349;-77
2023/04/16 09:05:37;;;;;;;11.02;4.40;;;;;;;8.24;100.00;102535.72;4990055;28;20074;-77
2023/04/16 09:08:06;;;;;;;8.45;3.85;;;;;;;8.22;100.00;102553.16;4989041;28;20112;-77
2023/04/16 09:10:31;;;;;;;;;;;;;;;8.20;100.00;102550.53;4993440;28;20100;-77
2023/04/16 09:12:57;;;;;;;7.68;3.53;;;;;;;8.19;100.00;102550.56;4993924;28;20157;-77
2023/04/16 09:15:26;;;;;;;8.48;3.65;;;;;;;8.22;100.00;102554.03;4991554;28;20098;-78
2023/04/16 09:17:53;;;;;;;8.05;3.33;;;;;;;8.23;100.00;102550.53;4993782;28;20038;-77
2023/04/16 09:20:19;;;;;;;10.10;4.20;;;;;;;8.27;100.00;102557.47;4993450;28;20049;-77
2023/04/16 09:22:45;;;;;;;7.72;3.55;;;;;;;8.27;100.00;102552.25;4993385;28;20149;-77
2023/04/16 09:25:11;;;;;;;13.10;3.95;;;;;;;8.27;100.00;102557.47;4995331;28;20304;-77
2023/04/16 09:27:36;;;;;;;7.88;3.60;;;;;;;8.30;100.00;102551.38;4993430;28;20137;-77
2023/04/16 09:30:23;;;;;;;10.65;4.40;;;;;;;8.31;100.00;102550.50;4993853;28;20038;-77
2023/04/16 09:32:50;;;;;;;6.90;3.70;;;;;;;8.34;100.00;102557.47;4991924;28;20061;-78
2023/04/16 09:35:17;;;;;;;15.57;4.13;;;;;;;8.34;100.00;102568.78;4994187;28;20046;-78
2023/04/16 09:37:43;;;;;;;9.18;4.18;;;;;;;8.37;100.00;102567.91;4993746;28;20076;-78
2023/04/16 09:40:09;;;;;;;13.20;4.07;;;;;;;8.39;100.00;102569.63;4994428;28;20070;-78
2023/04/16 09:42:38;;;;;;;7.40;4.00;;;;;;;8.41;100.00;102570.47;4993274;28;20046;-77
2023/04/16 09:45:04;;;;;;;11.95;5.00;;;;;;;8.43;100.00;102573.13;4991405;28;20046;-77
2023/04/16 09:47:40;;;;;;;18.67;5.00;;;;;;;8.39;100.00;102580.06;4994152;28;20065;-77
2023/04/16 09:50:08;;;;;;;10.10;5.07;;;;;;;8.38;100.00;102574.84;4995024;28;20077;-77
2023/04/16 09:52:35;;;;;;;10.02;4.63;;;;;;;8.38;100.00;102583.53;4993229;28;20050;-77
2023/04/16 09:55:01;;;;;;;10.93;4.72;;;;;;;8.38;100.00;102575.72;4992821;28;20121;-77
2023/04/16 09:57:26;;;;;;;15.13;4.60;;;;;;;8.39;100.00;102581.81;4992324;28;20085;-77
2023/04/16 10:00:02;;;;;;;6.07;3.53;;;;;;;8.42;100.00;102576.59;4994705;28;20101;-77
2023/04/16 10:02:29;;;;;;;16.77;4.70;;;;;;;8.35;100.00;102586.19;4993327;28;20337;-77
2023/04/16 10:04:56;;;;;;;9.27;4.20;;;;;;;8.38;100.00;102585.28;4993403;28;20031;-78
2023/04/16 10:07:26;;;;;;;12.80;4.82;;;;;;;8.40;100.00;102588.75;4993389;28;20030;-78
2023/04/16 10:09:52;;;;;;;12.90;4.63;;;;;;;8.39;100.00;102590.50;4992461;28;20257;-77
2023/04/16 10:12:18;;;;;;;16.60;4.60;;;;;;;8.39;100.00;102592.25;4987026;28;20050;-77
2023/04/16 10:14:43;;;;;;;17.15;5.25;;;;;;;8.39;100.00;102592.25;4994499;28;20379;-77
2023/04/16 10:17:09;;;;;;;10.57;4.68;;;;;;;8.42;100.00;102594.88;4993034;28;20041;-78
2023/04/16 10:19:35;;;;;;;17.05;4.97;;;;;;;8.42;100.00;102597.47;4994760;28;20125;-77
2023/04/16 10:22:03;;;;;;;19.45;4.75;;;;;;;8.39;100.00;102600.09;4994700;28;20093;-77
2023/04/16 10:24:30;;;;;;;18.70;5.13;;;;;;;8.40;100.00;102599.19;4995146;28;20053;-77
2023/04/16 10:26:57;;;;;;;19.95;6.10;;;;;;;8.39;100.00;102594.88;4982761;28;20222;-77
2023/04/16 10:29:23;;;;;;;17.42;6.45;;;;;;;8.41;100.00;102595.72;4994988;28;20046;-77
2023/04/16 10:31:50;;;;;;;14.43;5.07;;;;;;;8.41;100.00;102598.34;4991818;28;20501;-77
2023/04/16 10:34:16;;;;;;;9.18;5.03;;;;;;;8.42;100.00;102607.94;4998458;28;20042;-77
2023/04/16 10:36:41;;;;;;;15.80;5.90;;;;;;;8.40;100.00;102607.03;4982042;28;20511;-77
2023/04/16 10:39:11;;;;;;;14.25;5.50;;;;;;;8.41;100.00;102606.19;4998781;28;20046;-77
2023/04/16 10:41:37;;;;;;;12.95;5.35;;;;;;;8.40;100.00;102614.88;4998371;28;20038;-77
2023/04/16 10:44:10;;;;;;;18.35;6.07;;;;;;;8.40;100.00;102607.94;4999240;28;20069;-77
2023/04/16 10:46:40;;;;;;;14.85;5.93;;;;;;;8.42;100.00;102611.44;4984386;28;20334;-77
2023/04/16 10:49:18;;;;;;;14.63;5.72;;;;;;;8.41;100.00;102609.66;4998668;28;20069;-78
2023/04/16 10:52:15;;;;;;;14.60;5.65;;;;;;;8.43;100.00;102614.91;4998257;28;20041;-78
2023/04/16 10:54:41;;;;;;;12.77;6.00;;;;;;;8.41;100.00;102614.88;4990783;28;20046;-77
2023/04/16 10:57:15;;;;;;;16.60;5.18;;;;;;;8.43;100.00;102610.53;4984655;28;20036;-78
2023/04/16 10:59:42;;;;;;;13.73;5.10;;;;;;;8.44;100.00;102609.69;4997527;28;20050;-77
2023/04/16 11:02:12;;;;;;;11.05;5.22;;;;;;;8.45;100.00;102618.38;4998637;28;20308;-77
2023/04/16 11:04:40;;;;;;;14.00;5.35;;;;;;;8.44;100.00;102616.63;4997928;28;20045;-77
2023/04/16 11:07:16;;;;;;;9.38;4.57;;;;;;;8.42;100.00;102606.22;4982624;28;20092;-77
2023/04/16 11:10:00;;;;;;;9.35;5.00;;;;;;;8.44;100.00;102611.41;4997424;28;20322;-77
2023/04/16 11:12:40;;;;;;;8.10;4.95;;;;;;;8.46;100.00;102612.28;4997980;28;20042;-77
2023/04/16 11:15:13;;;;;;;12.90;5.70;;;;;;;8.47;99.63;102613.16;4998572;28;20105;-78
2023/04/16 11:17:46;;;;;;;11.45;5.25;;;;;;;8.49;99.72;102614.00;4985693;28;20133;-77
2023/04/16 11:20:17;;;;;;;11.70;5.53;;;;;;;8.52;100.00;102608.78;4994900;28;20117;-77
2023/04/16 11:22:44;;;;;;;13.52;5.15;;;;;;;8.52;100.00;102616.63;4997155;28;20092;-77
2023/04/16 11:25:09;;;;;;;12.10;6.05;;;;;;;8.50;99.55;102605.31;4997978;28;20049;-77
2023/04/16 11:27:35;;;;;;;9.93;5.40;;;;;;;8.51;99.54;102614.88;4985871;28;20061;-77